createdAt,value
2023-04-19T00:02:14.397Z,10.98
2023-04-19T00:04:41.349Z,10.93
2023-04-19T00:07:09.027Z,10.15
2023-04-19T00:09:35.995Z,11.18
2023-04-19T00:12:04.072Z,11.13
2023-04-19T00:14:31.481Z,10.18
2023-04-19T00:16:58.300Z,11.20
2023-04-19T00:19:26.953Z,10.77
2023-04-19T00:21:53.798Z,10.52
2023-04-19T00:24:20.944Z,10.50
2023-04-19T00:26:48.507Z,10.25
2023-04-19T00:29:15.213Z,10.13
2023-04-19T00:31:42.250Z,9.80
2023-04-19T00:34:09.184Z,11.20
2023-04-19T00:36:36.232Z,9.95
2023-04-19T00:39:03.102Z,10.13
2023-04-19T00:41:30.150Z,10.52
2023-04-19T00:43:56.763Z,10.32
2023-04-19T00:46:24.254Z,9.38
2023-04-19T00:48:51.646Z,9.75
2023-04-19T00:51:18.419Z,9.60
2023-04-19T00:53:45.121Z,9.07
2023-04-19T00:56:11.896Z,8.70
2023-04-19T00:58:39.497Z,9.30
2023-04-19T01:01:08.949Z,11.82
2023-04-19T01:03:37.014Z,8.98
2023-04-19T01:06:04.115Z,8.40
2023-04-19T01:08:31.373Z,8.75
2023-04-19T01:10:58.399Z,8.95
2023-04-19T01:13:28.604Z,9.73
2023-04-19T01:15:55.685Z,9.55
2023-04-19T01:18:24.983Z,9.27
2023-04-19T01:20:53.005Z,9.63
2023-04-19T01:23:20.231Z,9.38
2023-04-19T01:25:48.441Z,10.00
2023-04-19T01:28:15.408Z,9.45
2023-04-19T01:30:42.548Z,8.93
2023-04-19T01:33:09.257Z,9.85
2023-04-19T01:35:36.425Z,8.80
2023-04-19T01:38:03.794Z,8.60
2023-04-19T01:40:30.738Z,8.73
2023-04-19T01:42:57.641Z,9.32
2023-04-19T01:45:24.574Z,9.10
2023-04-19T01:47:52.032Z,10.38
2023-04-19T01:50:19.178Z,8.95
2023-04-19T01:52:46.108Z,8.05
2023-04-19T01:55:14.031Z,10.05
2023-04-19T01:57:41.096Z,9.27
2023-04-19T02:00:08.830Z,9.88
2023-04-19T02:02:37.096Z,9.10
2023-04-19T02:05:04.956Z,8.38
2023-04-19T02:07:32.113Z,9.10
2023-04-19T02:10:02.312Z,8.20
2023-04-19T02:12:30.106Z,8.68
2023-04-19T02:15:02.544Z,7.65
2023-04-19T02:17:30.094Z,8.88
2023-04-19T02:19:57.319Z,8.50
2023-04-19T02:22:24.492Z,9.15
2023-04-19T02:24:52.158Z,7.32
2023-04-19T02:27:19.789Z,8.35
2023-04-19T02:29:46.991Z,8.55
2023-04-19T02:32:14.216Z,7.85
2023-04-19T02:34:40.922Z,8.48
2023-04-19T02:37:07.850Z,8.00
2023-04-19T02:39:35.227Z,8.93
2023-04-19T02:42:02.802Z,8.05
2023-04-19T02:44:30.294Z,7.97
2023-04-19T02:46:58.548Z,8.20
2023-04-19T02:49:25.531Z,8.10
2023-04-19T02:51:53.485Z,7.65
2023-04-19T02:54:20.630Z,8.75
2023-04-19T02:56:47.564Z,7.43
2023-04-19T02:59:15.021Z,7.72
2023-04-19T03:01:42.429Z,8.40
2023-04-19T03:04:10.058Z,8.77
2023-04-19T03:06:37.242Z,8.65
2023-04-19T03:09:04.655Z,9.07
2023-04-19T03:11:32.256Z,9.32
2023-04-19T03:14:00.153Z,9.32
2023-04-19T03:16:27.885Z,8.30
2023-04-19T03:18:55.638Z,9.35
2023-04-19T03:21:23.118Z,10.65
2023-04-19T03:23:50.067Z,8.77
2023-04-19T03:26:17.348Z,8.82
2023-04-19T03:28:44.029Z,8.93
2023-04-19T03:31:10.955Z,9.68
2023-04-19T03:33:38.967Z,9.40
2023-04-19T03:36:06.420Z,9.18
2023-04-19T03:38:33.501Z,9.45
2023-04-19T03:41:00.276Z,11.52
2023-04-19T03:43:27.369Z,11.02
2023-04-19T03:45:54.511Z,9.52
2023-04-19T03:48:21.687Z,9.65
2023-04-19T03:50:48.980Z,10.88
2023-04-19T03:53:16.391Z,10.32
2023-04-19T03:55:43.089Z,9.73
2023-04-19T03:58:10.618Z,9.30
2023-04-19T04:00:37.940Z,10.93
2023-04-19T04:03:05.369Z,10.68
2023-04-19T04:05:33.226Z,9.93
2023-04-19T04:08:00.659Z,10.65
2023-04-19T04:10:28.431Z,10.20
2023-04-19T04:12:55.497Z,11.43
2023-04-19T04:15:22.696Z,10.68
2023-04-19T04:17:51.178Z,10.57
2023-04-19T04:20:18.730Z,12.13
2023-04-19T04:22:50.234Z,9.95
2023-04-19T04:25:17.272Z,10.32
2023-04-19T04:27:44.935Z,9.50
2023-04-19T04:30:12.419Z,9.35
2023-04-19T04:32:41.265Z,9.38
2023-04-19T04:35:08.757Z,8.10
2023-04-19T04:37:35.659Z,5.88
2023-04-19T04:40:05.809Z,4.88
2023-04-19T04:42:33.025Z,3.90
2023-04-19T04:45:02.372Z,2.70
2023-04-19T04:47:33.310Z,2.10
2023-04-19T04:50:02.549Z,2.30
2023-04-19T04:52:29.890Z,1.95
2023-04-19T04:54:56.772Z,1.83
2023-04-19T04:57:25.739Z,1.60
2023-04-19T04:59:52.399Z,1.75
2023-04-19T05:02:20.036Z,1.70
2023-04-19T05:04:47.881Z,2.08
2023-04-19T05:07:15.111Z,2.10
2023-04-19T05:09:41.830Z,1.70
2023-04-19T05:12:08.560Z,1.60
2023-04-19T05:14:35.443Z,1.80
2023-04-19T05:17:02.255Z,1.50
2023-04-19T05:19:30.209Z,1.60
2023-04-19T05:21:56.975Z,1.48
2023-04-19T05:24:24.871Z,1.45
2023-04-19T05:26:52.237Z,1.70
2023-04-19T05:29:19.350Z,2.50
2023-04-19T05:31:46.523Z,2.10
2023-04-19T05:34:13.843Z,1.55
2023-04-19T05:36:41.433Z,1.50
2023-04-19T05:39:10.043Z,1.70
2023-04-19T05:41:37.233Z,1.50
2023-04-19T05:44:04.113Z,1.60
2023-04-19T05:46:30.975Z,1.17
2023-04-19T05:48:58.598Z,1.75
2023-04-19T05:51:25.572Z,1.65
2023-04-19T05:53:55.196Z,1.50
2023-04-19T05:58:54.824Z,1.50
2023-04-19T06:01:22.672Z,2.75
2023-04-19T06:03:53.853Z,1.80
2023-04-19T06:06:25.091Z,1.38
2023-04-19T06:08:54.077Z,1.80
2023-04-19T06:11:31.338Z,1.50
2023-04-19T06:14:06.396Z,1.50
2023-04-19T06:16:34.015Z,1.90
2023-04-19T06:19:01.686Z,1.30
2023-04-19T06:21:32.177Z,1.20
2023-04-19T06:23:59.384Z,1.20
2023-04-19T06:26:26.401Z,2.10
2023-04-19T06:28:53.054Z,1.67
2023-04-19T06:31:20.226Z,2.33
2023-04-19T06:33:47.111Z,1.63
2023-04-19T06:36:13.768Z,1.13
2023-04-19T06:38:42.119Z,1.50
2023-04-19T06:41:09.949Z,1.30
2023-04-19T06:43:37.465Z,2.58
2023-04-19T06:46:08.079Z,8.25
2023-04-19T06:48:35.386Z,1.60
2023-04-19T06:51:02.315Z,1.50
2023-04-19T06:53:29.007Z,1.60
2023-04-19T06:55:59.046Z,6.72
2023-04-19T06:58:26.021Z,3.55
2023-04-19T07:00:52.890Z,1.48
2023-04-19T07:03:19.702Z,1.70
2023-04-19T07:05:47.672Z,1.88
2023-04-19T07:08:14.399Z,1.17
2023-04-19T07:10:44.210Z,3.03
2023-04-19T07:13:11.554Z,2.95
2023-04-19T07:15:38.459Z,1.98
2023-04-19T07:18:05.350Z,4.82
2023-04-19T07:20:32.673Z,16.92
2023-04-19T07:22:59.885Z,5.80
2023-04-19T07:25:27.328Z,1.60
2023-04-19T07:27:55.672Z,2.35
2023-04-19T07:30:22.860Z,10.05
2023-04-19T07:32:52.469Z,2.20
2023-04-19T07:35:20.215Z,4.03
2023-04-19T07:37:47.747Z,2.00
2023-04-19T07:40:15.057Z,3.25
2023-04-19T07:42:43.117Z,2.00
2023-04-19T07:45:10.679Z,2.10
2023-04-19T07:47:41.243Z,5.70
2023-04-19T07:50:09.233Z,32.73
2023-04-19T07:52:36.384Z,7.45
2023-04-19T07:55:04.176Z,3.03
2023-04-19T07:57:35.712Z,2.20
2023-04-19T08:00:02.765Z,1.60
2023-04-19T08:02:30.400Z,1.75
2023-04-19T08:04:58.243Z,1.40
2023-04-19T08:07:26.954Z,2.28
2023-04-19T08:09:54.235Z,3.53
2023-04-19T08:15:02.493Z,2.05
2023-04-19T08:17:41.806Z,2.05
2023-04-19T08:20:10.340Z,1.60
2023-04-19T08:22:37.853Z,1.70
2023-04-19T08:25:05.735Z,2.22
2023-04-19T08:27:33.159Z,1.80
2023-04-19T08:30:00.014Z,3.83
2023-04-19T08:32:27.719Z,1.70
2023-04-19T08:34:54.419Z,1.70
2023-04-19T08:37:21.359Z,1.77
2023-04-19T08:39:49.323Z,1.92
2023-04-19T08:42:28.876Z,1.80
2023-04-19T08:47:44.953Z,2.22
2023-04-19T08:50:32.394Z,1.85
2023-04-19T08:53:16.507Z,4.82
2023-04-19T08:56:08.817Z,3.78
2023-04-19T08:58:57.035Z,2.30
2023-04-19T09:04:02.410Z,2.97
2023-04-19T09:06:40.490Z,2.72
2023-04-19T09:11:50.775Z,4.50
2023-04-19T09:14:18.858Z,7.85
2023-04-19T09:16:46.151Z,20.10
2023-04-19T09:19:23.197Z,16.52
2023-04-19T09:21:55.185Z,8.55
2023-04-19T09:25:02.599Z,5.97
2023-04-19T09:27:27.910Z,3.95
2023-04-19T09:30:01.363Z,3.67
2023-04-19T09:32:29.301Z,10.85
2023-04-19T09:34:57.089Z,6.05
2023-04-19T09:39:54.287Z,9.82
2023-04-19T09:42:42.193Z,27.90
2023-04-19T09:47:39.627Z,7.45
2023-04-19T09:50:21.274Z,4.18
2023-04-19T09:52:49.763Z,5.95
2023-04-19T09:55:26.864Z,4.00
2023-04-19T09:57:55.694Z,4.55
2023-04-19T10:00:23.254Z,4.80
2023-04-19T10:02:58.663Z,4.78
2023-04-19T10:05:26.756Z,3.65
2023-04-19T10:07:59.679Z,4.70
2023-04-19T10:10:41.198Z,4.07
2023-04-19T10:13:19.951Z,4.25
2023-04-19T10:15:53.612Z,3.42
2023-04-19T10:18:22.442Z,4.10
2023-04-19T10:20:55.685Z,3.72
2023-04-19T10:23:23.211Z,4.70
2023-04-19T10:25:56.008Z,3.88
2023-04-19T10:28:24.306Z,3.80
2023-04-19T10:30:54.910Z,4.10
2023-04-19T10:33:25.809Z,4.23
2023-04-19T10:35:55.720Z,4.38
2023-04-19T10:38:36.261Z,3.85
2023-04-19T10:41:04.239Z,4.60
2023-04-19T10:43:33.407Z,4.97
2023-04-19T10:46:07.276Z,4.53
2023-04-19T10:48:35.814Z,4.72
2023-04-19T10:51:02.985Z,5.25
2023-04-19T10:53:48.774Z,5.38
2023-04-19T10:56:16.927Z,5.63
2023-04-19T10:59:08.252Z,4.88
2023-04-19T11:01:38.393Z,5.18
2023-04-19T11:04:05.983Z,7.50
2023-04-19T11:06:36.209Z,6.22
2023-04-19T11:09:05.843Z,6.85
2023-04-19T11:11:38.710Z,14.70
2023-04-19T11:14:08.214Z,6.88
2023-04-19T11:16:45.863Z,5.70
2023-04-19T11:19:20.239Z,6.65
2023-04-19T11:21:47.531Z,6.15
2023-04-19T11:24:16.360Z,7.00
2023-04-19T11:26:44.250Z,6.55
2023-04-19T11:29:11.058Z,7.47
2023-04-19T11:31:37.988Z,6.10
2023-04-19T11:34:05.482Z,5.80
2023-04-19T11:36:34.159Z,5.93
2023-04-19T11:39:01.089Z,6.25
2023-04-19T11:41:27.753Z,6.25
2023-04-19T11:43:54.333Z,6.03
2023-04-19T11:46:21.249Z,7.25
2023-04-19T11:48:54.320Z,6.47
2023-04-19T11:51:21.140Z,7.50
2023-04-19T11:53:50.182Z,6.65
2023-04-19T11:56:17.408Z,7.32
2023-04-19T11:58:46.149Z,6.95
2023-04-19T12:01:13.920Z,6.90
2023-04-19T12:03:50.967Z,6.97
2023-04-19T12:06:24.366Z,7.05
2023-04-19T12:08:52.378Z,8.15
2023-04-19T12:11:22.964Z,11.68
2023-04-19T12:13:49.891Z,8.03
2023-04-19T12:16:27.854Z,15.75
2023-04-19T12:18:55.709Z,11.55
2023-04-19T12:21:26.223Z,6.97
2023-04-19T12:23:57.510Z,8.60
2023-04-19T12:26:24.840Z,7.22
2023-04-19T12:28:54.014Z,8.25
2023-04-19T12:31:23.078Z,6.75
2023-04-19T12:33:50.009Z,6.68
2023-04-19T12:36:17.143Z,7.45
2023-04-19T12:38:44.167Z,7.90
2023-04-19T12:41:11.882Z,6.53
2023-04-19T12:43:38.746Z,7.55
2023-04-19T12:46:05.569Z,7.00
2023-04-19T12:48:33.854Z,7.47
2023-04-19T12:51:02.132Z,7.55
2023-04-19T12:53:29.741Z,9.13
2023-04-19T12:55:56.547Z,9.82
2023-04-19T12:58:23.474Z,8.82
2023-04-19T13:00:50.290Z,14.73
2023-04-19T13:03:17.281Z,9.75
2023-04-19T13:05:44.260Z,9.05
2023-04-19T13:08:12.354Z,12.65
2023-04-19T13:10:39.014Z,9.63
2023-04-19T13:13:05.646Z,9.80
2023-04-19T13:15:32.321Z,12.98
2023-04-19T13:17:59.334Z,9.48
2023-04-19T13:20:26.509Z,9.15
2023-04-19T13:22:53.686Z,9.63
2023-04-19T13:25:20.676Z,9.68
2023-04-19T13:27:47.297Z,9.15
2023-04-19T13:30:14.170Z,8.43
2023-04-19T13:32:40.828Z,11.52
2023-04-19T13:35:07.703Z,8.93
2023-04-19T13:37:34.601Z,8.57
2023-04-19T13:40:14.919Z,8.77
2023-04-19T13:42:45.450Z,9.07
2023-04-19T13:45:12.332Z,9.15
2023-04-19T13:47:39.332Z,9.00
2023-04-19T13:50:06.822Z,12.65
2023-04-19T13:52:35.048Z,23.55
2023-04-19T13:55:01.934Z,8.55
2023-04-19T13:57:28.856Z,7.43
2023-04-19T13:59:56.145Z,8.45
2023-04-19T14:02:23.343Z,8.75
2023-04-19T14:04:50.202Z,8.90
2023-04-19T14:07:17.239Z,8.52
2023-04-19T14:09:44.813Z,12.52
2023-04-19T14:12:11.661Z,8.73
2023-04-19T14:14:38.380Z,8.45
2023-04-19T14:17:05.168Z,8.82
2023-04-19T14:19:31.977Z,8.48
2023-04-19T14:21:58.732Z,9.07
2023-04-19T14:24:25.464Z,8.45
2023-04-19T14:27:06.953Z,8.70
2023-04-19T14:29:36.936Z,9.00
2023-04-19T14:32:17.154Z,9.60
2023-04-19T14:34:52.079Z,9.07
2023-04-19T14:37:19.296Z,8.80
2023-04-19T14:39:46.593Z,9.48
2023-04-19T14:42:13.561Z,8.82
2023-04-19T14:44:40.749Z,8.35
2023-04-19T14:47:07.684Z,9.27
2023-04-19T14:49:34.416Z,9.07
2023-04-19T14:52:01.220Z,8.90
2023-04-19T14:54:34.555Z,8.70
2023-04-19T14:57:01.669Z,11.25
2023-04-19T14:59:29.835Z,9.93
2023-04-19T15:01:56.969Z,9.48
2023-04-19T15:04:24.131Z,9.00
2023-04-19T15:06:50.988Z,9.32
2023-04-19T15:09:20.759Z,10.10
2023-04-19T15:11:47.486Z,9.95
2023-04-19T15:14:14.348Z,16.25
2023-04-19T15:16:41.144Z,25.77
2023-04-19T15:19:08.468Z,11.98
2023-04-19T15:21:35.352Z,13.90
2023-04-19T15:24:02.159Z,18.65
2023-04-19T15:26:28.927Z,15.25
2023-04-19T15:28:56.589Z,14.93
2023-04-19T15:31:25.221Z,28.48
2023-04-19T15:33:51.985Z,14.80
2023-04-19T15:36:19.002Z,16.42
2023-04-19T15:38:45.759Z,11.40
2023-04-19T15:41:12.437Z,11.40
2023-04-19T15:43:39.159Z,11.20
2023-04-19T15:46:05.999Z,14.60
2023-04-19T15:48:32.649Z,13.00
2023-04-19T15:50:59.613Z,11.88
2023-04-19T15:53:26.418Z,11.98
2023-04-19T15:55:54.303Z,14.48
2023-04-19T15:58:22.520Z,20.50
2023-04-19T16:00:49.156Z,20.27
2023-04-19T16:03:16.037Z,15.63
2023-04-19T16:05:43.173Z,13.98
2023-04-19T16:08:10.804Z,13.45
2023-04-19T16:10:37.695Z,22.52
2023-04-19T16:13:05.223Z,19.20
2023-04-19T16:15:34.945Z,14.48
2023-04-19T16:18:02.147Z,12.82
2023-04-19T16:20:29.692Z,13.65
2023-04-19T16:22:57.871Z,13.15
2023-04-19T16:25:24.632Z,13.85
2023-04-19T16:27:51.653Z,25.23
2023-04-19T16:30:18.277Z,12.05
2023-04-19T16:32:44.938Z,15.70
2023-04-19T16:35:11.929Z,15.63
2023-04-19T16:37:38.843Z,16.85
2023-04-19T16:40:10.287Z,17.60
2023-04-19T16:45:04.178Z,15.88
2023-04-19T16:47:31.250Z,19.08
2023-04-19T16:49:58.760Z,33.67
2023-04-19T16:52:26.506Z,16.60
2023-04-19T16:54:53.571Z,15.55
2023-04-19T16:57:20.598Z,21.95
2023-04-19T16:59:47.698Z,18.25
2023-04-19T17:02:14.633Z,17.40
2023-04-19T17:04:42.279Z,22.08
2023-04-19T17:07:09.233Z,22.92
2023-04-19T17:09:36.644Z,18.67
2023-04-19T17:12:06.184Z,19.83
2023-04-19T17:14:34.366Z,18.15
2023-04-19T17:17:01.299Z,17.83
2023-04-19T17:19:28.095Z,18.23
2023-04-19T17:21:54.962Z,17.48
2023-04-19T17:24:22.362Z,18.70
2023-04-19T17:26:50.122Z,17.05
2023-04-19T17:29:17.227Z,18.25
2023-04-19T17:31:44.219Z,18.05
2023-04-19T17:34:11.747Z,17.35
2023-04-19T17:36:38.458Z,18.58
2023-04-19T17:39:06.880Z,19.65
2023-04-19T17:41:34.142Z,19.85
2023-04-19T17:44:04.680Z,19.73
2023-04-19T17:46:31.778Z,19.23
2023-04-19T17:48:58.919Z,22.00
2023-04-19T17:51:25.734Z,21.15
2023-04-19T17:53:52.797Z,21.13
2023-04-19T17:56:20.732Z,22.08
2023-04-19T17:58:47.562Z,21.20
2023-04-19T18:01:15.547Z,23.50
2023-04-19T18:03:42.403Z,21.25
2023-04-19T18:06:10.031Z,22.52
2023-04-19T18:08:36.699Z,21.02
2023-04-19T18:11:03.700Z,22.90
2023-04-19T18:13:30.451Z,22.15
2023-04-19T18:15:57.955Z,21.27
2023-04-19T18:18:25.199Z,22.40
2023-04-19T18:20:53.104Z,21.33
2023-04-19T18:23:20.607Z,19.83
2023-04-19T18:25:54.498Z,21.75
2023-04-19T18:28:22.189Z,21.50
2023-04-19T18:30:48.919Z,20.60
2023-04-19T18:33:15.708Z,22.33
2023-04-19T18:35:42.568Z,20.85
2023-04-19T18:38:09.544Z,23.13
2023-04-19T18:40:36.229Z,20.33
2023-04-19T18:43:03.334Z,21.25
2023-04-19T18:45:33.271Z,22.83
2023-04-19T18:48:04.000Z,21.13
2023-04-19T18:50:31.351Z,19.63
2023-04-19T18:52:58.696Z,22.05
2023-04-19T18:55:26.924Z,21.83
2023-04-19T18:57:53.839Z,21.35
2023-04-19T19:00:22.131Z,23.92
2023-04-19T19:02:49.482Z,22.67
2023-04-19T19:05:16.672Z,21.63
2023-04-19T19:07:44.239Z,21.77
2023-04-19T19:12:41.784Z,22.35
2023-04-19T19:15:09.079Z,23.23
2023-04-19T19:17:35.943Z,22.92
2023-04-19T19:20:03.126Z,23.75
2023-04-19T19:22:42.641Z,21.98
2023-04-19T19:25:12.315Z,22.60
2023-04-19T19:27:40.094Z,21.95
2023-04-19T19:30:08.219Z,24.55
2023-04-19T19:32:35.596Z,22.65
2023-04-19T19:35:06.449Z,24.00
2023-04-19T19:37:38.246Z,21.40
2023-04-19T19:40:11.055Z,24.77
2023-04-19T19:42:39.798Z,22.88
2023-04-19T19:45:08.196Z,24.05
2023-04-19T19:47:36.040Z,22.25
2023-04-19T19:52:37.176Z,24.05
2023-04-19T19:55:04.178Z,23.98
2023-04-19T20:02:35.264Z,23.50
2023-04-19T20:05:02.370Z,24.30
2023-04-19T20:08:00.478Z,23.85
2023-04-19T20:10:27.479Z,27.10
2023-04-19T20:12:57.251Z,26.73
2023-04-19T20:15:24.174Z,25.33
2023-04-19T20:17:50.932Z,24.70
2023-04-19T20:20:18.233Z,29.40
2023-04-19T20:22:46.055Z,29.17
2023-04-19T20:25:13.814Z,27.98
2023-04-19T20:27:40.956Z,27.88
2023-04-19T20:30:08.763Z,28.00
2023-04-19T20:32:36.742Z,32.03
2023-04-19T20:35:08.867Z,35.63
2023-04-19T20:37:42.723Z,25.45
2023-04-19T20:40:11.961Z,26.58
2023-04-19T20:42:39.092Z,27.02
2023-04-19T20:45:07.615Z,27.42
2023-04-19T20:47:34.431Z,25.55
2023-04-19T20:50:01.156Z,25.30
2023-04-19T20:52:27.928Z,24.45
2023-04-19T20:54:56.729Z,26.92
2023-04-19T20:57:23.993Z,26.23
2023-04-19T20:59:51.413Z,27.40
2023-04-19T21:02:18.646Z,28.80
2023-04-19T21:04:46.050Z,44.35
2023-04-19T21:07:13.074Z,72.68
2023-04-19T21:09:39.825Z,67.15
2023-04-19T21:12:06.734Z,98.18
2023-04-19T21:14:34.419Z,80.15
2023-04-19T21:17:05.098Z,67.78
2023-04-19T21:19:32.399Z,63.00
2023-04-19T21:21:59.442Z,45.25
2023-04-19T21:24:26.561Z,30.83
2023-04-19T21:26:53.436Z,29.88
2023-04-19T21:29:20.586Z,28.33
2023-04-19T21:31:48.046Z,25.58
2023-04-19T21:34:14.807Z,28.83
2023-04-19T21:36:41.638Z,24.02
2023-04-19T21:39:08.859Z,26.08
2023-04-19T21:41:35.932Z,23.27
2023-04-19T21:44:02.737Z,23.90
2023-04-19T21:46:29.477Z,24.95
2023-04-19T21:48:56.483Z,27.75
2023-04-19T21:51:23.396Z,39.85
2023-04-19T21:53:50.323Z,40.80
2023-04-19T21:56:17.041Z,38.47
2023-04-19T21:58:43.832Z,38.15
2023-04-19T22:01:11.256Z,65.43
2023-04-19T22:03:42.357Z,46.78
2023-04-19T22:06:11.848Z,45.40
2023-04-19T22:08:38.784Z,45.28
2023-04-19T22:11:05.810Z,43.13
2023-04-19T22:13:34.008Z,35.10
2023-04-19T22:16:02.586Z,29.95
2023-04-19T22:18:30.340Z,29.38
2023-04-19T22:20:57.391Z,24.85
2023-04-19T22:23:24.533Z,24.45
2023-04-19T22:25:53.360Z,24.17
2023-04-19T22:28:27.333Z,23.52
2023-04-19T22:30:54.062Z,21.83
2023-04-19T22:33:20.807Z,42.60
2023-04-19T22:35:47.882Z,42.75
2023-04-19T22:38:14.661Z,38.95
2023-04-19T22:40:41.588Z,36.30
2023-04-19T22:43:09.143Z,40.13
2023-04-19T22:45:36.066Z,55.13
2023-04-19T22:48:03.764Z,49.40
2023-04-19T23:00:05.658Z,34.38
2023-04-19T23:02:32.811Z,33.63
2023-04-19T23:05:00.926Z,31.83
2023-04-19T23:07:29.048Z,30.70
2023-04-19T23:09:56.539Z,31.42
2023-04-19T23:12:24.533Z,32.75
2023-04-19T23:14:51.579Z,31.25
2023-04-19T23:17:19.077Z,28.40
2023-04-19T23:19:46.196Z,25.65
2023-04-19T23:22:12.877Z,27.58
2023-04-19T23:24:39.880Z,26.80
2023-04-19T23:27:07.006Z,25.30
2023-04-19T23:29:34.049Z,27.25
2023-04-19T23:32:02.123Z,24.80
2023-04-19T23:34:28.929Z,25.20
2023-04-19T23:36:57.173Z,25.45
2023-04-19T23:39:24.505Z,24.13
2023-04-19T23:41:51.728Z,24.40
2023-04-19T23:44:18.901Z,24.20
2023-04-19T23:46:46.611Z,26.25
2023-04-19T23:49:13.712Z,26.02
2023-04-19T23:51:40.763Z,24.30
2023-04-19T23:54:07.756Z,27.00
2023-04-19T23:56:35.082Z,26.15
2023-04-19T23:59:04.338Z,28.02
